sensor_id;sensor_type;location;lat;lon;timestamp;pressure;altitude;pressure_sealevel;temperature;humidity
25855;BME280;13680;49.936;11.344;2024-01-10T00:00:08;97691.66;;;-4.74;49.91
25855;BME280;13680;49.936;11.344;2024-01-10T00:02:34;97685.50;;;-4.81;50.92
25855;BME280;13680;49.936;11.344;2024-01-10T00:05:00;97681.16;;;-4.74;49.79
25855;BME280;13680;49.936;11.344;2024-01-10T00:07:25;97680.44;;;-4.83;50.50
25855;BME280;13680;49.936;11.344;2024-01-10T00:09:51;97686.78;;;-4.77;50.21
25855;BME280;13680;49.936;11.344;2024-01-10T00:12:16;97676.09;;;-4.75;48.52
25855;BME280;13680;49.936;11.344;2024-01-10T00:14:41;97673.22;;;-4.51;47.79
25855;BME280;13680;49.936;11.344;2024-01-10T00:17:07;97672.88;;;-4.48;48.85
25855;BME280;13680;49.936;11.344;2024-01-10T00:19:32;97680.66;;;-4.39;49.33
25855;BME280;13680;49.936;11.344;2024-01-10T00:21:58;97691.50;;;-4.28;46.93
25855;BME280;13680;49.936;11.344;2024-01-10T00:24:23;97686.09;;;-4.11;46.90
25855;BME280;13680;49.936;11.344;2024-01-10T00:26:48;97683.38;;;-4.18;48.27
25855;BME280;13680;49.936;11.344;2024-01-10T00:29:14;97685.53;;;-4.21;47.40
25855;BME280;13680;49.936;11.344;2024-01-10T00:31:39;97673.50;;;-4.16;48.96
25855;BME280;13680;49.936;11.344;2024-01-10T00:34:05;97679.13;;;-4.19;49.34
25855;BME280;13680;49.936;11.344;2024-01-10T00:36:30;97680.22;;;-4.28;48.39
25855;BME280;13680;49.936;11.344;2024-01-10T00:38:55;97671.69;;;-4.15;47.41
25855;BME280;13680;49.936;11.344;2024-01-10T00:41:21;97670.63;;;-4.21;49.62
25855;BME280;13680;49.936;11.344;2024-01-10T00:43:46;97675.69;;;-4.34;50.06
25855;BME280;13680;49.936;11.344;2024-01-10T00:46:11;97674.59;;;-4.40;48.82
25855;BME280;13680;49.936;11.344;2024-01-10T00:48:37;97670.09;;;-4.31;48.09
25855;BME280;13680;49.936;11.344;2024-01-10T00:51:02;97660.84;;;-4.27;47.95
25855;BME280;13680;49.936;11.344;2024-01-10T00:53:37;97655.47;;;-4.19;46.91
25855;BME280;13680;49.936;11.344;2024-01-10T00:56:04;97664.34;;;-4.20;47.20
25855;BME280;13680;49.936;11.344;2024-01-10T00:58:30;97663.81;;;-4.15;46.97
25855;BME280;13680;49.936;11.344;2024-01-10T01:00:55;97653.03;;;-4.05;46.51
25855;BME280;13680;49.936;11.344;2024-01-10T01:03:20;97654.81;;;-4.06;45.32
25855;BME280;13680;49.936;11.344;2024-01-10T01:05:46;97652.09;;;-3.98;45.43
25855;BME280;13680;49.936;11.344;2024-01-10T01:08:11;97659.84;;;-3.74;44.23
25855;BME280;13680;49.936;11.344;2024-01-10T01:10:36;97646.66;;;-3.59;43.85
25855;BME280;13680;49.936;11.344;2024-01-10T01:13:01;97647.91;;;-3.55;44.42
25855;BME280;13680;49.936;11.344;2024-01-10T01:15:27;97663.53;;;-3.69;44.58
25855;BME280;13680;49.936;11.344;2024-01-10T01:17:52;97668.16;;;-3.56;43.46
25855;BME280;13680;49.936;11.344;2024-01-10T01:20:17;97666.03;;;-3.46;43.44
25855;BME280;13680;49.936;11.344;2024-01-10T01:22:43;97669.34;;;-3.58;43.25
25855;BME280;13680;49.936;11.344;2024-01-10T01:25:08;97663.25;;;-3.37;43.72
25855;BME280;13680;49.936;11.344;2024-01-10T01:27:34;97671.28;;;-3.24;42.97
25855;BME280;13680;49.936;11.344;2024-01-10T01:29:59;97667.47;;;-3.21;42.34
25855;BME280;13680;49.936;11.344;2024-01-10T01:32:24;97661.88;;;-3.12;42.64
25855;BME280;13680;49.936;11.344;2024-01-10T01:34:49;97669.91;;;-2.98;43.58
25855;BME280;13680;49.936;11.344;2024-01-10T01:37:15;97662.00;;;-2.98;42.55
25855;BME280;13680;49.936;11.344;2024-01-10T01:39:40;97663.75;;;-3.05;43.81
25855;BME280;13680;49.936;11.344;2024-01-10T01:42:05;97651.94;;;-3.16;43.09
25855;BME280;13680;49.936;11.344;2024-01-10T01:44:31;97667.28;;;-3.20;44.12
25855;BME280;13680;49.936;11.344;2024-01-10T01:46:57;97660.25;;;-3.13;43.70
25855;BME280;13680;49.936;11.344;2024-01-10T01:49:24;97652.25;;;-3.26;44.64
25855;BME280;13680;49.936;11.344;2024-01-10T01:51:51;97661.53;;;-3.30;44.08
25855;BME280;13680;49.936;11.344;2024-01-10T01:54:17;97666.28;;;-3.40;46.03
25855;BME280;13680;49.936;11.344;2024-01-10T01:56:43;97655.63;;;-3.54;46.39
25855;BME280;13680;49.936;11.344;2024-01-10T01:59:10;97652.63;;;-3.51;46.49
25855;BME280;13680;49.936;11.344;2024-01-10T02:01:35;97651.09;;;-3.60;47.25
25855;BME280;13680;49.936;11.344;2024-01-10T02:04:01;97661.22;;;-3.79;48.13
25855;BME280;13680;49.936;11.344;2024-01-10T02:06:31;97657.84;;;-3.72;48.03
25855;BME280;13680;49.936;11.344;2024-01-10T02:08:57;97660.22;;;-3.78;48.54
25855;BME280;13680;49.936;11.344;2024-01-10T02:11:23;97654.53;;;-3.81;47.71
25855;BME280;13680;49.936;11.344;2024-01-10T02:13:49;97652.88;;;-3.82;48.70
25855;BME280;13680;49.936;11.344;2024-01-10T02:16:14;97655.91;;;-4.00;49.07
25855;BME280;13680;49.936;11.344;2024-01-10T02:18:40;97660.53;;;-4.02;49.81
25855;BME280;13680;49.936;11.344;2024-01-10T02:21:05;97655.09;;;-4.01;48.79
25855;BME280;13680;49.936;11.344;2024-01-10T02:23:30;97650.66;;;-4.00;49.16
25855;BME280;13680;49.936;11.344;2024-01-10T02:25:56;97661.25;;;-3.93;49.08
25855;BME280;13680;49.936;11.344;2024-01-10T02:28:21;97659.06;;;-3.90;49.00
25855;BME280;13680;49.936;11.344;2024-01-10T02:30:49;97659.00;;;-3.97;48.95
25855;BME280;13680;49.936;11.344;2024-01-10T02:33:15;97652.78;;;-4.11;49.87
25855;BME280;13680;49.936;11.344;2024-01-10T02:35:40;97655.38;;;-4.11;50.75
25855;BME280;13680;49.936;11.344;2024-01-10T02:38:06;97645.81;;;-4.33;52.06
25855;BME280;13680;49.936;11.344;2024-01-10T02:40:31;97654.50;;;-4.48;51.53
25855;BME280;13680;49.936;11.344;2024-01-10T02:42:56;97650.34;;;-4.27;51.14
25855;BME280;13680;49.936;11.344;2024-01-10T02:45:22;97649.59;;;-4.36;51.36
25855;BME280;13680;49.936;11.344;2024-01-10T02:47:47;97647.25;;;-4.46;51.65
25855;BME280;13680;49.936;11.344;2024-01-10T02:50:13;97646.88;;;-4.28;51.33
25855;BME280;13680;49.936;11.344;2024-01-10T02:52:38;97645.09;;;-4.27;51.49
25855;BME280;13680;49.936;11.344;2024-01-10T02:55:04;97642.72;;;-4.37;51.65
25855;BME280;13680;49.936;11.344;2024-01-10T02:57:29;97640.91;;;-4.66;52.26
25855;BME280;13680;49.936;11.344;2024-01-10T02:59:54;97639.56;;;-4.32;51.90
25855;BME280;13680;49.936;11.344;2024-01-10T03:02:20;97647.53;;;-4.25;51.82
25855;BME280;13680;49.936;11.344;2024-01-10T03:04:45;97640.34;;;-4.17;51.18
25855;BME280;13680;49.936;11.344;2024-01-10T03:07:10;97642.16;;;-4.17;51.92
25855;BME280;13680;49.936;11.344;2024-01-10T03:09:36;97633.47;;;-4.03;51.36
25855;BME280;13680;49.936;11.344;2024-01-10T03:12:01;97633.47;;;-4.18;51.49
25855;BME280;13680;49.936;11.344;2024-01-10T03:14:26;97628.94;;;-4.24;52.51
25855;BME280;13680;49.936;11.344;2024-01-10T03:16:52;97626.25;;;-4.16;51.35
25855;BME280;13680;49.936;11.344;2024-01-10T03:19:18;97628.19;;;-4.03;50.96
25855;BME280;13680;49.936;11.344;2024-01-10T03:21:43;97620.72;;;-4.21;52.32
25855;BME280;13680;49.936;11.344;2024-01-10T03:24:09;97615.22;;;-4.26;52.25
25855;BME280;13680;49.936;11.344;2024-01-10T03:26:34;97618.69;;;-4.04;51.94
25855;BME280;13680;49.936;11.344;2024-01-10T03:29:00;97622.69;;;-4.08;51.58
25855;BME280;13680;49.936;11.344;2024-01-10T03:31:27;97627.03;;;-4.15;51.43
25855;BME280;13680;49.936;11.344;2024-01-10T03:33:53;97625.44;;;-3.80;51.18
25855;BME280;13680;49.936;11.344;2024-01-10T03:36:18;97618.09;;;-3.84;51.13
25855;BME280;13680;49.936;11.344;2024-01-10T03:38:44;97633.56;;;-3.74;50.76
25855;BME280;13680;49.936;11.344;2024-01-10T03:41:20;97618.53;;;-3.81;50.48
25855;BME280;13680;49.936;11.344;2024-01-10T03:43:46;97619.38;;;-3.80;50.46
25855;BME280;13680;49.936;11.344;2024-01-10T03:46:11;97621.47;;;-3.69;50.69
25855;BME280;13680;49.936;11.344;2024-01-10T03:48:37;97609.97;;;-3.68;50.38
25855;BME280;13680;49.936;11.344;2024-01-10T03:51:05;97614.19;;;-3.73;51.41
25855;BME280;13680;49.936;11.344;2024-01-10T03:53:31;97605.72;;;-3.69;50.73
25855;BME280;13680;49.936;11.344;2024-01-10T03:55:56;97606.66;;;-3.55;50.18
25855;BME280;13680;49.936;11.344;2024-01-10T03:58:23;97608.53;;;-3.70;51.21
25855;BME280;13680;49.936;11.344;2024-01-10T04:00:49;97598.91;;;-3.41;50.07
25855;BME280;13680;49.936;11.344;2024-01-10T04:03:14;97589.28;;;-3.56;50.96
25855;BME280;13680;49.936;11.344;2024-01-10T04:05:41;97593.25;;;-3.38;51.10
25855;BME280;13680;49.936;11.344;2024-01-10T04:08:07;97592.75;;;-3.27;50.57
25855;BME280;13680;49.936;11.344;2024-01-10T04:10:32;97599.19;;;-3.30;50.20
25855;BME280;13680;49.936;11.344;2024-01-10T04:12:57;97592.13;;;-3.29;50.24
25855;BME280;13680;49.936;11.344;2024-01-10T04:15:23;97596.13;;;-3.33;50.58
25855;BME280;13680;49.936;11.344;2024-01-10T04:17:48;97596.09;;;-3.62;51.44
25855;BME280;13680;49.936;11.344;2024-01-10T04:20:14;97598.53;;;-3.60;51.51
25855;BME280;13680;49.936;11.344;2024-01-10T04:22:39;97597.56;;;-3.31;50.31
25855;BME280;13680;49.936;11.344;2024-01-10T04:25:06;97604.03;;;-3.33;51.29
25855;BME280;13680;49.936;11.344;2024-01-10T04:27:31;97594.00;;;-3.23;50.93
25855;BME280;13680;49.936;11.344;2024-01-10T04:29:57;97595.88;;;-3.17;51.04
25855;BME280;13680;49.936;11.344;2024-01-10T04:32:22;97602.13;;;-3.18;50.53
25855;BME280;13680;49.936;11.344;2024-01-10T04:34:47;97599.13;;;-3.15;50.77
25855;BME280;13680;49.936;11.344;2024-01-10T04:37:13;97604.63;;;-3.09;50.73
25855;BME280;13680;49.936;11.344;2024-01-10T04:39:39;97601.84;;;-3.01;50.30
25855;BME280;13680;49.936;11.344;2024-01-10T04:42:05;97601.84;;;-3.51;51.92
25855;BME280;13680;49.936;11.344;2024-01-10T04:44:31;97602.50;;;-3.21;51.17
25855;BME280;13680;49.936;11.344;2024-01-10T04:46:56;97591.94;;;-3.27;51.61
25855;BME280;13680;49.936;11.344;2024-01-10T04:49:22;97605.50;;;-3.02;50.70
25855;BME280;13680;49.936;11.344;2024-01-10T04:51:47;97602.72;;;-2.94;50.54
25855;BME280;13680;49.936;11.344;2024-01-10T04:54:13;97597.56;;;-2.81;50.17
25855;BME280;13680;49.936;11.344;2024-01-10T04:56:38;97613.16;;;-3.07;50.77
25855;BME280;13680;49.936;11.344;2024-01-10T04:59:04;97612.75;;;-3.04;51.32
25855;BME280;13680;49.936;11.344;2024-01-10T05:01:30;97614.50;;;-3.12;51.23
25855;BME280;13680;49.936;11.344;2024-01-10T05:03:56;97609.00;;;-3.17;51.24
25855;BME280;13680;49.936;11.344;2024-01-10T05:06:22;97606.75;;;-2.98;51.96
25855;BME280;13680;49.936;11.344;2024-01-10T05:08:47;97606.88;;;-3.06;50.85
25855;BME280;13680;49.936;11.344;2024-01-10T05:11:13;97608.38;;;-2.97;51.73
25855;BME280;13680;49.936;11.344;2024-01-10T05:13:40;97607.03;;;-3.15;51.76
25855;BME280;13680;49.936;11.344;2024-01-10T05:16:05;97609.94;;;-3.03;51.63
25855;BME280;13680;49.936;11.344;2024-01-10T05:18:30;97608.84;;;-2.87;51.70
25855;BME280;13680;49.936;11.344;2024-01-10T05:20:56;97613.63;;;-2.97;51.04
25855;BME280;13680;49.936;11.344;2024-01-10T05:23:23;97611.22;;;-3.20;52.11
25855;BME280;13680;49.936;11.344;2024-01-10T05:25:49;97606.63;;;-3.12;52.71
25855;BME280;13680;49.936;11.344;2024-01-10T05:28:15;97617.16;;;-3.12;52.35
25855;BME280;13680;49.936;11.344;2024-01-10T05:30:40;97617.06;;;-2.97;52.64
25855;BME280;13680;49.936;11.344;2024-01-10T05:33:06;97611.09;;;-3.12;52.55
25855;BME280;13680;49.936;11.344;2024-01-10T05:35:31;97611.97;;;-3.05;53.01
25855;BME280;13680;49.936;11.344;2024-01-10T05:37:57;97610.31;;;-3.06;52.20
25855;BME280;13680;49.936;11.344;2024-01-10T05:40:23;97606.88;;;-3.06;52.91
25855;BME280;13680;49.936;11.344;2024-01-10T05:42:48;97612.72;;;-3.11;53.03
25855;BME280;13680;49.936;11.344;2024-01-10T05:45:14;97618.41;;;-3.07;52.33
25855;BME280;13680;49.936;11.344;2024-01-10T05:47:42;97615.41;;;-3.26;52.89
25855;BME280;13680;49.936;11.344;2024-01-10T05:50:08;97613.91;;;-3.14;52.38
25855;BME280;13680;49.936;11.344;2024-01-10T05:52:33;97613.47;;;-3.17;52.35
25855;BME280;13680;49.936;11.344;2024-01-10T05:54:59;97613.91;;;-3.14;53.23
25855;BME280;13680;49.936;11.344;2024-01-10T05:57:26;97619.03;;;-3.27;53.59
25855;BME280;13680;49.936;11.344;2024-01-10T05:59:52;97613.00;;;-3.27;53.87
25855;BME280;13680;49.936;11.344;2024-01-10T06:02:21;97609.34;;;-3.26;53.51
25855;BME280;13680;49.936;11.344;2024-01-10T06:04:46;97605.66;;;-3.32;53.96
25855;BME280;13680;49.936;11.344;2024-01-10T06:07:12;97605.69;;;-3.25;53.43
25855;BME280;13680;49.936;11.344;2024-01-10T06:09:37;97609.34;;;-3.26;53.05
25855;BME280;13680;49.936;11.344;2024-01-10T06:12:03;97609.22;;;-3.18;53.46
25855;BME280;13680;49.936;11.344;2024-01-10T06:14:28;97606.53;;;-3.25;53.00
25855;BME280;13680;49.936;11.344;2024-01-10T06:16:54;97609.38;;;-3.48;54.17
25855;BME280;13680;49.936;11.344;2024-01-10T06:19:19;97614.03;;;-3.43;53.96
25855;BME280;13680;49.936;11.344;2024-01-10T06:21:44;97611.84;;;-3.62;54.75
25855;BME280;13680;49.936;11.344;2024-01-10T06:24:10;97617.50;;;-3.65;54.95
25855;BME280;13680;49.936;11.344;2024-01-10T06:26:35;97611.34;;;-3.29;54.40
25855;BME280;13680;49.936;11.344;2024-01-10T06:29:00;97619.69;;;-3.68;54.99
25855;BME280;13680;49.936;11.344;2024-01-10T06:31:26;97605.41;;;-3.37;55.05
25855;BME280;13680;49.936;11.344;2024-01-10T06:33:51;97605.53;;;-3.24;54.01
25855;BME280;13680;49.936;11.344;2024-01-10T06:36:16;97606.84;;;-3.35;55.22
25855;BME280;13680;49.936;11.344;2024-01-10T06:38:42;97609.72;;;-3.30;54.43
25855;BME280;13680;49.936;11.344;2024-01-10T06:41:10;97611.09;;;-3.12;55.10
25855;BME280;13680;49.936;11.344;2024-01-10T06:43:39;97612.38;;;-3.01;53.83
25855;BME280;13680;49.936;11.344;2024-01-10T06:46:04;97611.78;;;-3.25;55.07
25855;BME280;13680;49.936;11.344;2024-01-10T06:48:30;97613.41;;;-3.02;55.08
25855;BME280;13680;49.936;11.344;2024-01-10T06:50:56;97611.56;;;-3.30;54.95
25855;BME280;13680;49.936;11.344;2024-01-10T06:53:22;97619.75;;;-3.40;55.50
25855;BME280;13680;49.936;11.344;2024-01-10T06:55:47;97619.69;;;-3.25;55.22
25855;BME280;13680;49.936;11.344;2024-01-10T06:58:13;97614.63;;;-3.26;55.35
25855;BME280;13680;49.936;11.344;2024-01-10T07:00:38;97615.03;;;-3.45;55.87
25855;BME280;13680;49.936;11.344;2024-01-10T07:03:04;97617.75;;;-3.16;54.67
25855;BME280;13680;49.936;11.344;2024-01-10T07:05:30;97616.47;;;-3.42;56.04
25855;BME280;13680;49.936;11.344;2024-01-10T07:07:58;97619.53;;;-3.17;55.03
25855;BME280;13680;49.936;11.344;2024-01-10T07:10:23;97626.91;;;-3.05;55.13
25855;BME280;13680;49.936;11.344;2024-01-10T07:12:55;97617.84;;;-3.24;54.96
25855;BME280;13680;49.936;11.344;2024-01-10T07:15:21;97622.91;;;-3.01;55.35
25855;BME280;13680;49.936;11.344;2024-01-10T07:17:47;97624.16;;;-2.97;54.68
25855;BME280;13680;49.936;11.344;2024-01-10T07:20:12;97630.91;;;-2.88;55.03
25855;BME280;13680;49.936;11.344;2024-01-10T07:22:38;97619.31;;;-2.93;55.17
25855;BME280;13680;49.936;11.344;2024-01-10T07:25:09;97627.22;;;-3.15;55.21
25855;BME280;13680;49.936;11.344;2024-01-10T07:27:35;97636.31;;;-3.18;55.17
25855;BME280;13680;49.936;11.344;2024-01-10T07:30:06;97630.84;;;-2.94;55.33
25855;BME280;13680;49.936;11.344;2024-01-10T07:32:38;97637.59;;;-2.85;54.60
25855;BME280;13680;49.936;11.344;2024-01-10T07:35:04;97630.66;;;-2.93;55.17
25855;BME280;13680;49.936;11.344;2024-01-10T07:37:29;97634.16;;;-2.86;55.38
25855;BME280;13680;49.936;11.344;2024-01-10T07:39:55;97632.19;;;-3.05;55.53
25855;BME280;13680;49.936;11.344;2024-01-10T07:42:22;97636.91;;;-3.22;56.90
25855;BME280;13680;49.936;11.344;2024-01-10T07:44:47;97642.19;;;-2.94;56.09
25855;BME280;13680;49.936;11.344;2024-01-10T07:47:12;97645.69;;;-2.87;56.14
25855;BME280;13680;49.936;11.344;2024-01-10T07:49:38;97644.75;;;-2.79;54.89
25855;BME280;13680;49.936;11.344;2024-01-10T07:52:03;97634.88;;;-2.70;55.09
25855;BME280;13680;49.936;11.344;2024-01-10T07:54:29;97643.38;;;-2.68;55.18
25855;BME280;13680;49.936;11.344;2024-01-10T07:56:57;97637.69;;;-2.72;54.65
25855;BME280;13680;49.936;11.344;2024-01-10T07:59:23;97644.50;;;-2.84;56.00
25855;BME280;13680;49.936;11.344;2024-01-10T08:01:56;97655.06;;;-2.49;55.31
25855;BME280;13680;49.936;11.344;2024-01-10T08:04:24;97651.72;;;-2.93;57.21
25855;BME280;13680;49.936;11.344;2024-01-10T08:06:49;97644.69;;;-2.86;56.12
25855;BME280;13680;49.936;11.344;2024-01-10T08:09:15;97645.94;;;-2.47;56.15
25855;BME280;13680;49.936;11.344;2024-01-10T08:11:40;97643.94;;;-2.44;54.92
25855;BME280;13680;49.936;11.344;2024-01-10T08:14:05;97642.03;;;-2.57;56.06
25855;BME280;13680;49.936;11.344;2024-01-10T08:16:30;97639.91;;;-2.40;54.87
25855;BME280;13680;49.936;11.344;2024-01-10T08:18:57;97640.81;;;-2.20;55.50
25855;BME280;13680;49.936;11.344;2024-01-10T08:21:24;97647.69;;;-2.60;55.97
25855;BME280;13680;49.936;11.344;2024-01-10T08:23:50;97639.56;;;-2.31;55.10
25855;BME280;13680;49.936;11.344;2024-01-10T08:26:15;97644.28;;;-2.19;55.25
25855;BME280;13680;49.936;11.344;2024-01-10T08:28:40;97645.19;;;-2.40;55.89
25855;BME280;13680;49.936;11.344;2024-01-10T08:31:07;97640.13;;;-1.93;54.84
25855;BME280;13680;49.936;11.344;2024-01-10T08:33:32;97640.91;;;-2.06;54.08
25855;BME280;13680;49.936;11.344;2024-01-10T08:35:58;97644.63;;;-1.87;54.61
25855;BME280;13680;49.936;11.344;2024-01-10T08:38:23;97630.81;;;-1.96;53.81
25855;BME280;13680;49.936;11.344;2024-01-10T08:40:49;97635.63;;;-2.06;54.29
25855;BME280;13680;49.936;11.344;2024-01-10T08:43:14;97638.16;;;-1.85;55.01
25855;BME280;13680;49.936;11.344;2024-01-10T08:45:39;97635.97;;;-1.61;54.02
25855;BME280;13680;49.936;11.344;2024-01-10T08:48:05;97644.22;;;-1.77;54.58
25855;BME280;13680;49.936;11.344;2024-01-10T08:50:32;97641.28;;;-1.54;54.18
25855;BME280;13680;49.936;11.344;2024-01-10T08:52:57;97649.50;;;-1.84;54.71
25855;BME280;13680;49.936;11.344;2024-01-10T08:55:23;97649.47;;;-1.91;54.79
25855;BME280;13680;49.936;11.344;2024-01-10T08:57:48;97647.56;;;-1.55;54.75
25855;BME280;13680;49.936;11.344;2024-01-10T09:00:17;97643.53;;;-1.24;53.58
25855;BME280;13680;49.936;11.344;2024-01-10T09:02:42;97646.78;;;-1.29;53.00
25855;BME280;13680;49.936;11.344;2024-01-10T09:05:07;97648.63;;;-1.23;53.17
25855;BME280;13680;49.936;11.344;2024-01-10T09:07:36;97656.34;;;-1.14;53.42
25855;BME280;13680;49.936;11.344;2024-01-10T09:10:01;97659.41;;;-0.97;52.92
25855;BME280;13680;49.936;11.344;2024-01-10T09:12:26;97651.50;;;-0.84;52.33
25855;BME280;13680;49.936;11.344;2024-01-10T09:14:52;97656.56;;;-0.69;52.66
25855;BME280;13680;49.936;11.344;2024-01-10T09:17:17;97664.25;;;-0.34;51.62
25855;BME280;13680;49.936;11.344;2024-01-10T09:19:43;97669.66;;;-0.15;50.89
25855;BME280;13680;49.936;11.344;2024-01-10T09:22:08;97665.88;;;-0.33;51.67
25855;BME280;13680;49.936;11.344;2024-01-10T09:24:33;97661.97;;;0.35;50.03
25855;BME280;13680;49.936;11.344;2024-01-10T09:26:58;97667.38;;;0.54;49.21
25855;BME280;13680;49.936;11.344;2024-01-10T09:29:24;97666.69;;;0.65;49.46
25855;BME280;13680;49.936;11.344;2024-01-10T09:31:50;97662.16;;;0.72;48.24
25855;BME280;13680;49.936;11.344;2024-01-10T09:34:16;97671.13;;;0.78;48.33
25855;BME280;13680;49.936;11.344;2024-01-10T09:36:41;97670.78;;;0.61;49.06
25855;BME280;13680;49.936;11.344;2024-01-10T09:39:07;97668.25;;;0.79;49.21
25855;BME280;13680;49.936;11.344;2024-01-10T09:41:42;97669.03;;;1.37;47.82
25855;BME280;13680;49.936;11.344;2024-01-10T09:44:10;97673.97;;;1.77;46.59
25855;BME280;13680;49.936;11.344;2024-01-10T09:46:38;97677.56;;;1.83;46.59
25855;BME280;13680;49.936;11.344;2024-01-10T09:49:06;97671.16;;;2.28;45.28
25855;BME280;13680;49.936;11.344;2024-01-10T09:51:33;97672.94;;;1.97;45.37
25855;BME280;13680;49.936;11.344;2024-01-10T09:54:02;97666.88;;;1.71;46.55
25855;BME280;13680;49.936;11.344;2024-01-10T09:56:28;97673.22;;;1.89;45.48
25855;BME280;13680;49.936;11.344;2024-01-10T09:58:55;97677.28;;;1.73;45.86
25855;BME280;13680;49.936;11.344;2024-01-10T10:01:23;97678.63;;;1.57;46.12
25855;BME280;13680;49.936;11.344;2024-01-10T10:03:50;97679.28;;;2.15;45.94
25855;BME280;13680;49.936;11.344;2024-01-10T10:06:16;97675.56;;;2.34;44.88
25855;BME280;13680;49.936;11.344;2024-01-10T10:08:41;97679.00;;;2.53;44.39
25855;BME280;13680;49.936;11.344;2024-01-10T10:11:12;97681.84;;;1.15;47.04
25855;BME280;13680;49.936;11.344;2024-01-10T10:13:38;97682.97;;;2.13;45.74
25855;BME280;13680;49.936;11.344;2024-01-10T10:16:07;97688.09;;;1.90;45.85
25855;BME280;13680;49.936;11.344;2024-01-10T10:18:34;97688.63;;;1.80;45.74
25855;BME280;13680;49.936;11.344;2024-01-10T10:21:06;97687.41;;;1.76;46.09
25855;BME280;13680;49.936;11.344;2024-01-10T10:23:33;97686.84;;;1.92;45.42
25855;BME280;13680;49.936;11.344;2024-01-10T10:25:58;97685.34;;;1.59;46.47
25855;BME280;13680;49.936;11.344;2024-01-10T10:28:28;97690.31;;;1.74;46.63
25855;BME280;13680;49.936;11.344;2024-01-10T10:30:54;97690.59;;;1.16;47.52
25855;BME280;13680;49.936;11.344;2024-01-10T10:33:20;97684.84;;;1.51;46.62
25855;BME280;13680;49.936;11.344;2024-01-10T10:35:46;97682.81;;;1.46;47.10
25855;BME280;13680;49.936;11.344;2024-01-10T10:38:11;97681.91;;;1.34;47.09
25855;BME280;13680;49.936;11.344;2024-01-10T10:40:37;97689.16;;;0.88;47.79
25855;BME280;13680;49.936;11.344;2024-01-10T10:43:03;97690.66;;;1.09;47.50
25855;BME280;13680;49.936;11.344;2024-01-10T10:45:31;97688.88;;;1.53;47.39
25855;BME280;13680;49.936;11.344;2024-01-10T10:47:59;97685.41;;;1.96;46.57
25855;BME280;13680;49.936;11.344;2024-01-10T10:50:28;97687.59;;;2.00;46.43
25855;BME280;13680;49.936;11.344;2024-01-10T10:52:55;97694.38;;;2.33;45.54
25855;BME280;13680;49.936;11.344;2024-01-10T10:55:22;97688.47;;;1.93;46.44
25855;BME280;13680;49.936;11.344;2024-01-10T10:57:49;97688.41;;;2.00;46.22
25855;BME280;13680;49.936;11.344;2024-01-10T11:00:19;97680.88;;;2.34;45.53
25855;BME280;13680;49.936;11.344;2024-01-10T11:02:45;97679.31;;;2.75;44.38
25855;BME280;13680;49.936;11.344;2024-01-10T11:05:11;97680.56;;;2.73;45.08
25855;BME280;13680;49.936;11.344;2024-01-10T11:07:47;97668.34;;;3.26;44.07
25855;BME280;13680;49.936;11.344;2024-01-10T11:10:14;97668.47;;;3.19;43.94
25855;BME280;13680;49.936;11.344;2024-01-10T11:12:55;97669.50;;;3.18;43.42
25855;BME280;13680;49.936;11.344;2024-01-10T11:18:12;97668.94;;;3.40;42.90
25855;BME280;13680;49.936;11.344;2024-01-10T11:21:06;97658.09;;;3.65;42.46
25855;BME280;13680;49.936;11.344;2024-01-10T11:23:38;97654.88;;;4.16;41.08
25855;BME280;13680;49.936;11.344;2024-01-10T11:26:05;97655.56;;;4.23;41.21
25855;BME280;13680;49.936;11.344;2024-01-10T11:28:31;97648.00;;;5.40;40.12
25855;BME280;13680;49.936;11.344;2024-01-10T11:30:56;97647.13;;;5.91;39.40
25855;BME280;13680;49.936;11.344;2024-01-10T11:33:37;97645.75;;;5.88;38.72
25855;BME280;13680;49.936;11.344;2024-01-10T11:36:14;97641.59;;;5.76;38.34
25855;BME280;13680;49.936;11.344;2024-01-10T11:41:27;97640.78;;;6.64;38.15
25855;BME280;13680;49.936;11.344;2024-01-10T11:46:52;97642.19;;;6.71;36.21
25855;BME280;13680;49.936;11.344;2024-01-10T11:49:20;97636.25;;;6.64;36.47
25855;BME280;13680;49.936;11.344;2024-01-10T11:51:46;97621.78;;;7.20;36.02
25855;BME280;13680;49.936;11.344;2024-01-10T11:54:36;97624.19;;;6.34;36.60
25855;BME280;13680;49.936;11.344;2024-01-10T11:57:02;97626.19;;;7.04;36.11
25855;BME280;13680;49.936;11.344;2024-01-10T11:59:28;97630.06;;;6.36;36.59
25855;BME280;13680;49.936;11.344;2024-01-10T12:01:55;97620.72;;;6.61;35.87
25855;BME280;13680;49.936;11.344;2024-01-10T12:04:21;97621.53;;;5.95;37.40
25855;BME280;13680;49.936;11.344;2024-01-10T12:06:47;97614.06;;;5.53;38.01
25855;BME280;13680;49.936;11.344;2024-01-10T12:09:12;97618.28;;;5.15;39.35
25855;BME280;13680;49.936;11.344;2024-01-10T12:11:42;97618.50;;;5.30;38.75
25855;BME280;13680;49.936;11.344;2024-01-10T12:14:10;97621.34;;;4.89;39.57
25855;BME280;13680;49.936;11.344;2024-01-10T12:16:36;97612.78;;;4.87;40.07
25855;BME280;13680;49.936;11.344;2024-01-10T12:19:01;97619.31;;;5.14;39.38
25855;BME280;13680;49.936;11.344;2024-01-10T12:21:27;97618.22;;;4.64;40.48
25855;BME280;13680;49.936;11.344;2024-01-10T12:23:52;97621.84;;;4.29;41.02
25855;BME280;13680;49.936;11.344;2024-01-10T12:26:18;97619.00;;;4.76;40.42
25855;BME280;13680;49.936;11.344;2024-01-10T12:28:57;97619.66;;;5.00;39.40
25855;BME280;13680;49.936;11.344;2024-01-10T12:31:24;97614.97;;;4.90;39.78
25855;BME280;13680;49.936;11.344;2024-01-10T12:33:51;97608.84;;;4.90;39.78
25855;BME280;13680;49.936;11.344;2024-01-10T12:36:18;97607.66;;;4.69;40.47
25855;BME280;13680;49.936;11.344;2024-01-10T12:38:44;97610.66;;;4.72;39.92
25855;BME280;13680;49.936;11.344;2024-01-10T12:41:14;97602.88;;;4.54;40.80
25855;BME280;13680;49.936;11.344;2024-01-10T12:43:40;97600.59;;;4.46;40.97
25855;BME280;13680;49.936;11.344;2024-01-10T12:46:10;97608.44;;;4.23;41.75
25855;BME280;13680;49.936;11.344;2024-01-10T12:48:41;97613.63;;;4.30;41.36
25855;BME280;13680;49.936;11.344;2024-01-10T12:51:11;97608.22;;;3.84;42.61
25855;BME280;13680;49.936;11.344;2024-01-10T12:53:43;97608.53;;;4.00;42.49
25855;BME280;13680;49.936;11.344;2024-01-10T12:56:10;97611.19;;;4.00;42.38